Flight Track Log - Related Links

Times and Time Zones

All times are in EDT time to prevent confusion due to time zone crossing. See the UAL165 flight status page for this flight to view local times or setup timezone preferences in your user account.

Time Position Orientation Groundspeed Altitude Reporting Facility
EDT Latitude Longitude Course Direction KTS MPH feet Rate Location/Type
Fri 05:46:42 PM 13.4833 144.8000 320° Northwest 160 184 1,400  Level Guam Center
Fri 05:47:42 PM 13.5333 144.7833 342° North 230 265 4,000 2,950 Climbing Guam Center
Fri 05:48:42 PM 13.5833 144.7333 316° Northwest 280 322 7,300 3,550 Climbing Guam Center
Fri 05:49:00 PM 13.7606 144.6290 320° Northwest  Level Estimated
Fri 05:49:42 PM 13.6500 144.6833 324° Northwest 300 345 11,100  Level Guam Center
Fri 05:50:00 PM 13.8529 144.5728 316° Northwest  Level Estimated
Fri 05:50:43 PM 13.7167 144.6167 316° Northwest 330 380 13,200  Level Guam Center
Fri 05:51:00 PM 13.8819 144.4666 286° West  Level FlightAware Approximate
Fri 05:51:43 PM 13.8000 144.5500 322° Northwest 370 426 16,400  Level Guam Center
Fri 05:52:00 PM 13.9742 144.4106 320° Northwest  Level Estimated
Fri 05:52:43 PM 13.8667 144.4833 316° Northwest 380 437 19,100  Level Guam Center
Fri 05:53:43 PM 13.9500 144.4000 316° Northwest 390 449 21,800 2,600 Climbing Guam Center
Fri 05:54:43 PM 14.0333 144.3167 316° Northwest 400 460 24,300 2,132 Climbing Guam Center
Fri 05:55:44 PM 14.1167 144.2500 322° Northwest 400 460 26,100 1,884 Climbing Guam Center
Fri 05:56:44 PM 14.2000 144.1833 322° Northwest 410 472 28,100 2,000 Climbing Guam Center
Fri 05:57:44 PM 14.2833 144.1000 316° Northwest 430 495 30,100 2,000 Climbing Guam Center
Fri 05:58:44 PM 14.3667 144.0167 316° Northwest 430 495 32,100 1,850 Climbing Guam Center
Fri 05:59:44 PM 14.4667 143.9333 321° Northwest 430 495 33,800 1,750 Climbing Guam Center
Fri 06:00:44 PM 14.5500 143.8500 316° Northwest 420 483 35,600 1,686 Climbing Guam Center
Fri 06:01:45 PM 14.6333 143.7667 316° Northwest 420 483 37,200 1,686 Climbing Guam Center
Fri 06:02:45 PM 14.7167 143.6833 316° Northwest 420 483 39,000 1,400 Climbing Guam Center
Fri 06:03:45 PM 14.8000 143.6000 316° Northwest 410 472 40,000 500 Climbing Guam Center
Fri 06:04:45 PM 14.8833 143.5333 322° Northwest 400 460 40,000  Level Guam Center
Fri 06:05:45 PM 14.9667 143.4500 316° Northwest 410 472 40,000  Level Guam Center
Fri 06:06:45 PM 15.0500 143.3667 316° Northwest 410 472 40,000  Level Guam Center
Fri 06:07:45 PM 15.1333 143.2833 316° Northwest 410 472 40,000  Level Guam Center
Fri 06:08:46 PM 15.2167 143.2167 322° Northwest 410 472 40,000  Level Guam Center
Fri 06:09:46 PM 15.3000 143.1333 316° Northwest 410 472 40,000  Level Guam Center
Fri 06:10:46 PM 15.3833 143.0500 316° Northwest 400 460 40,000  Level Guam Center
Fri 06:11:46 PM 15.4667 142.9667 316° Northwest 400 460 40,000  Level Guam Center
Fri 06:12:46 PM 15.5500 142.9000 322° Northwest 400 460 40,000  Level Guam Center
Fri 06:13:47 PM 15.6333 142.8167 316° Northwest 400 460 40,000  Level Guam Center
Fri 06:14:47 PM 15.7167 142.7500 322° Northwest 400 460 40,000  Level Guam Center
Fri 06:15:46 PM 15.8000 142.6667 316° Northwest 400 460 40,000  Level Guam Center
Fri 06:16:47 PM 15.8833 142.5833 316° Northwest 400 460 40,000 97 Level Guam Center
Fri 06:18:00 PM 15.9778 142.4965 319° Northwest  Level FlightAware Approximate
Fri 06:25:00 PM 16.5206 141.9952 319° Northwest  Level FlightAware Approximate
Fri 06:26:00 PM 16.5958 141.9208 316° Northwest  Level FlightAware Approximate
Fri 06:26:04 PM 16.5833 141.9500 319° Northwest 392 451 41,000  Level Oakland Oceanic (ODAPS)
Fri 06:27:00 PM 16.6725 141.8481 319° Northwest  Level FlightAware Approximate
Fri 06:28:00 PM 16.7510 141.7774 319° Northwest  Level FlightAware Approximate
Fri 06:29:00 PM 16.8294 141.7067 319° Northwest  Level FlightAware Approximate
Fri 06:30:00 PM 16.9078 141.6359 319° Northwest  Level FlightAware Approximate
Fri 06:31:00 PM 16.9862 141.5651 319° Northwest  Level FlightAware Approximate
Fri 06:32:00 PM 17.1608 141.4260 319° Northwest 392 451 41,000  Level FlightAware Transoceanic
Fri 06:33:00 PM 17.2432 141.3509 319° Northwest 392 451 41,000  Level FlightAware Transoceanic
Fri 06:34:00 PM 17.3256 141.2757 319° Northwest 392 451 41,000  Level FlightAware Transoceanic
Fri 06:35:00 PM 17.4079 141.2005 319° Northwest 392 451 41,000  Level FlightAware Transoceanic
Fri 06:36:00 PM 17.4902 141.1251 319° Northwest 392 451 41,000  Level FlightAware Transoceanic
Fri 06:37:00 PM 17.5725 141.0497 319° Northwest 392 451 41,000  Level FlightAware Transoceanic
Fri 06:38:00 PM 17.6547 140.9743 319° Northwest 392 451 41,000  Level FlightAware Transoceanic
Fri 06:39:00 PM 17.7369 140.8988 319° Northwest 392 451 41,000  Level FlightAware Transoceanic
Fri 06:40:00 PM 17.8191 140.8232 319° Northwest 392 451 41,000  Level FlightAware Transoceanic
Fri 06:41:00 PM 17.9013 140.7475 319° Northwest 392 451 41,000  Level FlightAware Transoceanic
Fri 06:42:00 PM 17.9834 140.6718 319° Northwest 392 451 41,000  Level FlightAware Transoceanic
Fri 06:43:00 PM 18.0655 140.5960 319° Northwest 392 451 41,000  Level FlightAware Transoceanic
Fri 06:44:00 PM 18.1476 140.5201 319° Northwest 392 451 41,000  Level FlightAware Transoceanic
Fri 06:45:00 PM 18.2296 140.4441 319° Northwest 392 451 41,000  Level FlightAware Transoceanic
Fri 06:46:00 PM 18.3116 140.3681 319° Northwest 392 451 41,000  Level FlightAware Transoceanic
Fri 06:47:00 PM 18.3936 140.2920 319° Northwest 392 451 41,000  Level FlightAware Transoceanic
Fri 06:48:00 PM 18.4755 140.2159 319° Northwest 392 451 41,000  Level FlightAware Transoceanic
Fri 06:49:00 PM 18.5575 140.1396 319° Northwest 392 451 41,000  Level FlightAware Transoceanic
Fri 06:50:00 PM 18.6394 140.0633 319° Northwest 392 451 41,000  Level FlightAware Transoceanic
Fri 06:51:00 PM 18.7212 139.9869 319° Northwest 392 451 41,000  Level FlightAware Transoceanic
Fri 06:52:00 PM 18.8030 139.9105 318° Northwest 392 451 41,000  Level FlightAware Transoceanic
Fri 06:53:00 PM 18.8848 139.8339 318° Northwest 392 451 41,000  Level FlightAware Transoceanic
Fri 06:54:00 PM 18.9666 139.7573 318° Northwest 392 451 41,000  Level FlightAware Transoceanic
Fri 06:55:00 PM 19.0483 139.6806 318° Northwest 392 451 41,000  Level FlightAware Transoceanic
Fri 06:56:00 PM 19.1300 139.6039 318° Northwest 392 451 41,000  Level FlightAware Transoceanic
Fri 06:57:00 PM 19.2117 139.5271 318° Northwest 392 451 41,000  Level FlightAware Transoceanic
Fri 06:58:00 PM 19.2933 139.4501 318° Northwest 392 451 41,000  Level FlightAware Transoceanic
Fri 06:59:00 PM 19.3749 139.3732 318° Northwest 392 451 41,000  Level FlightAware Transoceanic
Fri 07:00:00 PM 19.4565 139.2961 318° Northwest 392 451 41,000  Level FlightAware Transoceanic
Fri 07:01:00 PM 19.5381 139.2189 318° Northwest 392 451 41,000  Level FlightAware Transoceanic
Fri 07:02:00 PM 19.6196 139.1417 318° Northwest 392 451 41,000  Level FlightAware Transoceanic
Fri 07:03:00 PM 19.7010 139.0644 318° Northwest 392 451 41,000  Level FlightAware Transoceanic
Fri 07:04:00 PM 19.7825 138.9870 318° Northwest 392 451 41,000  Level FlightAware Transoceanic
Fri 07:05:00 PM 19.8639 138.9096 318° Northwest 392 451 41,000  Level FlightAware Transoceanic
Fri 07:06:00 PM 19.9453 138.8320 318° Northwest 392 451 41,000  Level FlightAware Transoceanic
Fri 07:07:00 PM 20.0266 138.7544 318° Northwest 392 451 41,000  Level FlightAware Transoceanic
Fri 07:08:00 PM 20.1079 138.6767 318° Northwest 392 451 41,000  Level FlightAware Transoceanic
Fri 07:09:00 PM 20.1892 138.5990 318° Northwest 392 451 41,000  Level FlightAware Transoceanic
Fri 07:10:00 PM 20.2704 138.5211 318° Northwest 392 451 41,000  Level FlightAware Transoceanic
Fri 07:11:00 PM 20.3516 138.4432 318° Northwest 392 451 41,000  Level FlightAware Transoceanic
Fri 07:12:00 PM 20.4328 138.3651 318° Northwest 392 451 41,000  Level FlightAware Transoceanic
Fri 07:13:00 PM 20.5139 138.2870 318° Northwest 392 451 41,000  Level FlightAware Transoceanic
Fri 07:14:00 PM 20.5950 138.2089 318° Northwest 392 451 41,000  Level FlightAware Transoceanic
Fri 07:15:00 PM 20.6761 138.1306 318° Northwest 392 451 41,000  Level FlightAware Transoceanic
Fri 07:16:00 PM 20.7571 138.0522 318° Northwest 392 451 41,000  Level FlightAware Transoceanic
Fri 07:17:00 PM 20.8381 137.9738 318° Northwest 392 451 41,000  Level FlightAware Transoceanic
Fri 07:18:00 PM 20.9191 137.8953 318° Northwest 392 451 41,000  Level FlightAware Transoceanic
Fri 07:19:00 PM 21.0000 137.8167 330° Northwest 392 451 41,000  Level FlightAware Transoceanic
Fri 07:20:00 PM 21.0923 137.7607 330° Northwest 392 451 41,000  Level FlightAware Transoceanic
Fri 07:21:00 PM 21.1846 137.7046 330° Northwest 392 451 41,000  Level FlightAware Transoceanic
Fri 07:22:00 PM 21.2769 137.6485 330° Northwest 392 451 41,000  Level FlightAware Transoceanic
Fri 07:23:00 PM 21.3692 137.5923 330° Northwest 392 451 41,000  Level FlightAware Transoceanic
Fri 07:24:00 PM 21.4614 137.5360 330° Northwest 392 451 41,000  Level FlightAware Transoceanic
Fri 07:25:00 PM 21.5536 137.4797 330° Northwest 392 451 41,000  Level FlightAware Transoceanic
Fri 07:26:00 PM 21.6459 137.4232 330° Northwest 392 451 41,000  Level FlightAware Transoceanic
Fri 07:27:00 PM 21.7381 137.3668 330° Northwest 392 451 41,000  Level FlightAware Transoceanic
Fri 07:28:00 PM 21.8302 137.3102 330° Northwest 392 451 41,000  Level FlightAware Transoceanic
Fri 07:29:00 PM 21.9224 137.2536 330° Northwest 392 451 41,000  Level FlightAware Transoceanic
Fri 07:30:00 PM 22.0145 137.1969 330° Northwest 392 451 41,000  Level FlightAware Transoceanic
Fri 07:31:00 PM 22.1066 137.1401 330° Northwest 392 451 41,000  Level FlightAware Transoceanic
Fri 07:32:00 PM 22.1987 137.0832 330° Northwest 392 451 41,000  Level FlightAware Transoceanic
Fri 07:33:00 PM 22.2908 137.0263 330° Northwest 392 451 41,000  Level FlightAware Transoceanic
Fri 07:34:00 PM 22.3829 136.9693 330° Northwest 392 451 41,000  Level FlightAware Transoceanic
Fri 07:35:00 PM 22.4749 136.9122 330° Northwest 392 451 41,000  Level FlightAware Transoceanic
Fri 07:36:00 PM 22.5669 136.8551 330° Northwest 392 451 41,000  Level FlightAware Transoceanic
Fri 07:37:00 PM 22.6589 136.7978 330° Northwest 392 451 41,000  Level FlightAware Transoceanic
Fri 07:38:00 PM 22.7509 136.7405 330° Northwest 392 451 41,000  Level FlightAware Transoceanic
Fri 07:39:00 PM 22.8428 136.6831 330° Northwest 392 451 41,000  Level FlightAware Transoceanic
Fri 07:40:00 PM 22.9347 136.6257 330° Northwest 392 451 41,000  Level FlightAware Transoceanic
Fri 07:41:00 PM 23.0267 136.5681 330° Northwest 392 451 41,000  Level FlightAware Transoceanic
Fri 07:42:00 PM 23.1185 136.5105 330° Northwest 392 451 41,000  Level FlightAware Transoceanic
Fri 07:43:00 PM 23.2104 136.4528 330° Northwest 392 451 41,000  Level FlightAware Transoceanic
Fri 07:44:00 PM 23.3023 136.3950 330° Northwest 392 451 41,000  Level FlightAware Transoceanic
Fri 07:45:00 PM 23.3941 136.3372 330° Northwest 392 451 41,000  Level FlightAware Transoceanic
Fri 07:46:00 PM 23.4859 136.2792 330° Northwest 392 451 41,000  Level FlightAware Transoceanic
Fri 07:47:00 PM 23.5777 136.2212 330° Northwest 392 451 41,000  Level FlightAware Transoceanic
Fri 07:48:00 PM 23.6695 136.1631 330° Northwest 392 451 41,000  Level FlightAware Transoceanic
Fri 07:49:00 PM 23.7612 136.1049 330° Northwest 392 451 41,000  Level FlightAware Transoceanic
Fri 07:50:00 PM 23.8529 136.0466 330° Northwest 392 451 41,000  Level FlightAware Transoceanic
Fri 07:51:00 PM 23.9446 135.9883 330° Northwest 392 451 41,000  Level FlightAware Transoceanic
Fri 07:52:00 PM 24.0363 135.9299 330° Northwest 392 451 41,000  Level FlightAware Transoceanic
Fri 07:53:00 PM 24.1280 135.8714 330° Northwest 392 451 41,000  Level FlightAware Transoceanic
Fri 07:54:00 PM 24.2196 135.8128 330° Northwest 392 451 41,000  Level FlightAware Transoceanic
Fri 07:55:00 PM 24.3112 135.7541 330° Northwest 392 451 41,000  Level FlightAware Transoceanic
Fri 07:56:00 PM 24.4028 135.6953 330° Northwest 392 451 41,000  Level FlightAware Transoceanic
Fri 07:57:00 PM 24.4943 135.6365 330° Northwest 392 451 41,000  Level FlightAware Transoceanic
Fri 07:58:00 PM 24.5859 135.5775 330° Northwest 392 451 41,000  Level FlightAware Transoceanic
Fri 07:59:00 PM 24.6774 135.5185 330° Northwest 392 451 41,000  Level FlightAware Transoceanic
Fri 08:00:00 PM 24.7689 135.4594 330° Northwest 392 451 41,000  Level FlightAware Transoceanic
Fri 08:01:00 PM 24.8604 135.4002 330° Northwest 392 451 41,000  Level FlightAware Transoceanic
Fri 08:02:00 PM 24.9518 135.3409 330° Northwest 392 451 41,000  Level FlightAware Transoceanic
Fri 08:03:00 PM 25.0432 135.2815 330° Northwest 392 451 41,000  Level FlightAware Transoceanic
Fri 08:04:00 PM 25.1346 135.2221 329° Northwest 392 451 41,000  Level FlightAware Transoceanic
Fri 08:05:00 PM 25.2260 135.1625 329° Northwest 392 451 41,000  Level FlightAware Transoceanic
Fri 08:06:00 PM 25.3174 135.1029 329° Northwest 392 451 41,000  Level FlightAware Transoceanic
Fri 08:07:00 PM 25.4087 135.0432 329° Northwest 392 451 41,000  Level FlightAware Transoceanic
Fri 08:08:00 PM 25.4923 134.9761 324° Northwest  Level FlightAware Approximate
Fri 08:09:00 PM 25.4907 134.9784 329° Northwest  Level FlightAware Approximate
Fri 08:10:00 PM 25.5792 134.9196 329° Northwest  Level FlightAware Approximate
Fri 08:11:00 PM 25.6677 134.8607 329° Northwest  Level FlightAware Approximate
Fri 08:12:00 PM 25.7562 134.8017 329° Northwest  Level FlightAware Approximate
Fri 08:13:00 PM 25.8446 134.7427 329° Northwest  Level FlightAware Approximate
Fri 08:14:00 PM 25.9331 134.6835 329° Northwest  Level FlightAware Approximate
Fri 08:15:00 PM 26.0215 134.6243 329° Northwest  Level FlightAware Approximate
Fri 08:16:00 PM 26.1098 134.5649 329° Northwest  Level FlightAware Approximate
Fri 08:17:00 PM 26.1982 134.5055 329° Northwest  Level FlightAware Approximate
Fri 08:18:00 PM 26.2865 134.4460 329° Northwest  Level FlightAware Approximate
Fri 08:19:00 PM 26.3748 134.3864 329° Northwest  Level FlightAware Approximate
Fri 08:20:00 PM 26.4631 134.3266 329° Northwest  Level FlightAware Approximate
Fri 08:21:00 PM 26.5514 134.2668 329° Northwest  Level FlightAware Approximate
Fri 08:22:00 PM 26.6396 134.2070 329° Northwest  Level FlightAware Approximate
Fri 08:23:00 PM 26.7278 134.1470 329° Northwest  Level FlightAware Approximate
Fri 08:24:00 PM 26.8160 134.0869 329° Northwest  Level FlightAware Approximate
Fri 08:25:00 PM 26.9042 134.0267 329° Northwest  Level FlightAware Approximate
Fri 08:26:00 PM 26.9923 133.9665 329° Northwest  Level FlightAware Approximate
Fri 08:27:00 PM 27.0804 133.9061 329° Northwest  Level FlightAware Approximate
Fri 08:28:00 PM 27.1685 133.8457 329° Northwest  Level FlightAware Approximate
Fri 08:29:00 PM 27.2565 133.7851 329° Northwest  Level FlightAware Approximate
Fri 08:30:00 PM 27.3445 133.7245 329° Northwest  Level FlightAware Approximate
Fri 08:31:00 PM 27.4325 133.6637 329° Northwest  Level FlightAware Approximate
Fri 08:32:00 PM 27.5205 133.6029 328° Northwest  Level FlightAware Approximate
Fri 08:33:00 PM 27.6085 133.5420 328° Northwest  Level FlightAware Approximate
Fri 08:34:00 PM 27.6964 133.4809 328° Northwest  Level FlightAware Approximate
Fri 08:35:00 PM 27.7843 133.4198 328° Northwest  Level FlightAware Approximate
Fri 08:36:00 PM 27.8721 133.3586 328° Northwest  Level FlightAware Approximate
Fri 08:37:00 PM 27.9600 133.2973 328° Northwest  Level FlightAware Approximate
Fri 08:38:00 PM 28.0478 133.2358 328° Northwest  Level FlightAware Approximate
Fri 08:39:00 PM 28.1356 133.1743 328° Northwest  Level FlightAware Approximate
Fri 08:40:00 PM 28.2233 133.1127 328° Northwest  Level FlightAware Approximate
Fri 08:41:00 PM 28.3111 133.0509 328° Northwest  Level FlightAware Approximate
Fri 08:42:00 PM 28.3988 132.9891 328° Northwest  Level FlightAware Approximate
Fri 08:43:00 PM 28.4864 132.9271 328° Northwest  Level FlightAware Approximate
Fri 08:44:00 PM 28.5740 132.8651 328° Northwest  Level FlightAware Approximate
Fri 08:45:00 PM 28.6616 132.8029 328° Northwest  Level FlightAware Approximate
Fri 08:46:00 PM 28.7492 132.7406 328° Northwest  Level FlightAware Approximate
Fri 08:47:00 PM 28.8367 132.6782 328° Northwest  Level FlightAware Approximate
Fri 08:48:00 PM 28.9242 132.6157 328° Northwest  Level FlightAware Approximate
Fri 08:49:00 PM 29.0117 132.5531 328° Northwest  Level FlightAware Approximate
Fri 08:50:00 PM 29.0992 132.4904 328° Northwest  Level FlightAware Approximate
Fri 08:51:00 PM 29.1866 132.4276 328° Northwest  Level FlightAware Approximate
Fri 08:52:00 PM 29.2740 132.3647 328° Northwest  Level FlightAware Approximate
Fri 08:53:00 PM 29.3613 132.3016 328° Northwest  Level FlightAware Approximate
Fri 08:54:00 PM 29.4487 132.2385 328° Northwest  Level FlightAware Approximate
Fri 08:55:00 PM 29.5360 132.1752 328° Northwest  Level FlightAware Approximate
Fri 08:56:00 PM 29.6232 132.1118 327° Northwest  Level FlightAware Approximate
Fri 08:57:00 PM 29.7101 132.0477 327° Northwest  Level FlightAware Approximate
Fri 08:58:00 PM 29.7969 131.9834 327° Northwest  Level FlightAware Approximate
Fri 08:59:00 PM 29.8837 131.9191 327° Northwest  Level FlightAware Approximate
Fri 09:00:00 PM 29.9705 131.8546 327° Northwest  Level FlightAware Approximate
Fri 09:01:00 PM 30.0572 131.7900 327° Northwest  Level FlightAware Approximate
Fri 09:02:00 PM 30.1439 131.7253 327° Northwest  Level FlightAware Approximate
Fri 09:03:00 PM 30.2307 131.6606 327° Northwest  Level FlightAware Approximate
Fri 09:04:00 PM 30.3177 131.5963 327° Northwest  Level FlightAware Approximate
Fri 09:05:00 PM 30.4046 131.5318 327° Northwest  Level FlightAware Approximate
Fri 09:06:00 PM 30.4915 131.4672 327° Northwest  Level FlightAware Approximate
Fri 09:07:00 PM 30.5784 131.4025 327° Northwest  Level FlightAware Approximate
Fri 09:08:00 PM 30.6652 131.3376 327° Northwest  Level FlightAware Approximate
Fri 09:09:00 PM 30.7520 131.2727 327° Northwest  Level FlightAware Approximate
Fri 09:10:00 PM 30.8388 131.2076 327° Northwest  Level FlightAware Approximate
Fri 09:11:00 PM 30.9255 131.1424 327° Northwest  Level FlightAware Approximate
Fri 09:12:00 PM 31.0122 131.0771 327° Northwest  Level FlightAware Approximate
Fri 09:13:00 PM 31.0989 131.0117 327° Northwest  Level FlightAware Approximate
Fri 09:14:00 PM 31.1844 130.9469 327° Northwest  Level FlightAware Approximate
Fri 09:14:22 PM 30.5970 131.1970 327° Northwest 344 396 41,000  Level FlightAware ADS-B
Fri 09:15:00 PM 31.2700 130.8821 327° Northwest  Level FlightAware Approximate
Fri 09:15:12 PM 30.6600 131.1690 339° North 344 396 41,000  Level FlightAware ADS-B
Fri 09:15:52 PM 30.7110 131.1460 339° North 344 396 41,000  Level FlightAware ADS-B
Fri 09:16:32 PM 30.7610 131.1240 339° North 344 396 41,000  Level FlightAware ADS-B
Fri 09:17:17 PM 30.8590 131.0830 340° North 345 397 41,000  Level FlightAware ADS-B
Fri 09:17:57 PM 30.9190 131.0570 340° North 346 398 41,000  Level FlightAware ADS-B
Fri 09:18:42 PM 30.9860 131.0270 339° North 347 399 41,000  Level FlightAware ADS-B
Fri 09:19:22 PM 31.0480 131.0000 340° North 349 402 41,000  Level FlightAware ADS-B
Fri 09:20:07 PM 31.1150 130.9710 340° North 352 405 41,000  Level FlightAware ADS-B
Fri 09:20:47 PM 31.1770 130.9440 340° North 352 405 41,000  Level FlightAware ADS-B
Fri 09:21:27 PM 31.2370 130.9170 339° North 354 407 41,000  Level FlightAware ADS-B
Fri 09:22:12 PM 31.3070 130.8870 340° North 354 407 41,000  Level FlightAware ADS-B
Fri 09:22:57 PM 31.3720 130.8580 339° North 352 405 41,000  Level FlightAware ADS-B
Fri 09:23:37 PM 31.4370 130.8290 339° North 351 404 41,000  Level FlightAware ADS-B
Fri 09:24:17 PM 31.4970 130.8020 339° North 351 404 41,000  Level FlightAware ADS-B
Fri 09:25:02 PM 31.5660 130.7720 340° North 351 404 41,000  Level FlightAware ADS-B
Fri 09:25:42 PM 31.6210 130.7470 339° North 350 403 41,000  Level FlightAware ADS-B
Fri 09:26:27 PM 31.6930 130.7150 339° North 350 403 41,000  Level FlightAware ADS-B
Fri 09:27:07 PM 31.7550 130.6880 340° North 349 402 41,000  Level FlightAware ADS-B
Fri 09:27:47 PM 31.8150 130.6610 339° North 348 400 41,000  Level FlightAware ADS-B
Fri 09:28:32 PM 31.8820 130.6310 339° North 349 402 41,000  Level FlightAware ADS-B
Fri 09:29:12 PM 31.9410 130.6040 339° North 349 402 41,000  Level FlightAware ADS-B
Fri 09:29:57 PM 32.0110 130.5720 339° North 349 402 41,000  Level FlightAware ADS-B
Fri 09:30:37 PM 32.0670 130.5470 339° North 350 403 41,000  Level FlightAware ADS-B
Fri 09:31:17 PM 32.1320 130.5190 340° North 349 402 41,000  Level FlightAware ADS-B
Fri 09:32:02 PM 32.2000 130.4880 339° North 348 400 41,000  Level FlightAware ADS-B
Fri 09:32:42 PM 32.2600 130.4610 339° North 351 404 41,000 -565 Level FlightAware ADS-B
Fri 09:33:27 PM 32.3270 130.4300 339° North 339 390 40,200 -988 Descending FlightAware ADS-B
Fri 09:34:07 PM 32.3840 130.4050 340° North 346 398 39,600 -900 Descending FlightAware ADS-B
Fri 09:34:47 PM 32.4420 130.3780 339° North 356 410 39,000 -918 Descending FlightAware ADS-B
Fri 09:35:32 PM 32.5170 130.3440 339° North 366 421 38,300 -988 Descending FlightAware ADS-B
Fri 09:36:12 PM 32.5800 130.3160 339° North 369 425 37,600 -960 Descending FlightAware ADS-B
Fri 09:36:47 PM 32.6340 130.2920 339° North 370 426 37,100 -2,501 Descending FlightAware ADS-B
Fri 09:39:00 PM 32.8207 130.1405 326° Northwest  Level FlightAware Approximate
Fri 09:40:00 PM 32.9173 130.1793 344° North  Level Estimated
Fri 09:41:00 PM 33.0020 130.1117 326° Northwest  Level FlightAware Approximate
Fri 09:42:00 PM 33.0939 130.1645 337° Northwest  Level Estimated
Fri 09:43:00 PM 33.1596 130.0714 310° West  Level FlightAware Approximate
Fri 09:44:00 PM 33.2416 130.1438 342° North  Level Estimated
Fri 09:45:00 PM 33.3197 130.0654 320° Northwest  Level FlightAware Approximate
Fri 09:46:00 PM 33.3978 129.9869 320° Northwest  Level FlightAware Approximate
Fri 09:47:00 PM 33.4427 130.0965 342° North  Level Estimated
Fri 09:47:07 PM 33.6640 129.8160 342° North 303 349 10,300  Level FlightAware ADS-B
Fri 09:47:52 PM 33.7070 129.8020 345° North 312 359 9,500 -780 Descending FlightAware ADS-B
Fri 09:48:47 PM 33.7770 129.8170 10° North 320 368 9,000 -462 Descending FlightAware ADS-B
Fri 09:48:57 PM 33.7890 129.8190 North 320 368 9,000 -2,880 Level FlightAware ADS-B
Fri 09:49:12 PM 33.7890 129.8930 90° East 302 348 7,800 -1,680 Descending FlightAware ADS-B
Fri 09:49:47 PM 33.8060 129.9380 66° East 280 322 7,600 -500 Descending FlightAware ADS-B
Fri 09:50:12 PM 33.8170 129.9700 68° East 264 304 7,300 -800 Descending FlightAware ADS-B
Fri 09:50:32 PM 33.8290 130.0030 66° East 259 298 7,000 -900 Descending FlightAware ADS-B
Fri 09:51:12 PM 33.8460 130.0510 67° East 252 290 6,400 -960 Descending FlightAware ADS-B
Fri 09:51:47 PM 33.8620 130.0950 66° East 251 289 5,800 -1,200 Descending FlightAware ADS-B
Fri 09:52:17 PM 33.8840 130.1570 67° East 247 284 5,100 -1,200 Descending FlightAware ADS-B
Fri 09:52:47 PM 33.8970 130.1960 68° East 237 273 4,600 -873 Descending FlightAware ADS-B
Fri 09:53:12 PM 33.8930 130.2270 99° East 223 257 4,300 -900 Descending FlightAware ADS-B
Fri 09:53:27 PM 33.8850 130.2410 125° Southeast 213 245 4,000 -1,200 Descending FlightAware ADS-B
Fri 09:53:42 PM 33.8720 130.2520 145° Southeast 212 244 3,700 -933 Descending FlightAware ADS-B
Fri 09:54:12 PM 33.8480 130.2700 148° Southeast 210 242 3,300 -764 Descending FlightAware ADS-B
Fri 09:54:37 PM 33.8270 130.2840 151° Southeast 192 221 3,000 -360 Descending FlightAware ADS-B
Fri 09:55:02 PM 33.8090 130.2970 149° Southeast 192 221 3,000 -873 Level FlightAware ADS-B
Fri 09:55:32 PM 33.7930 130.3080 150° Southeast 198 228 2,200 -1,000 Descending FlightAware ADS-B
Fri 09:56:02 PM 33.7720 130.3230 149° Southeast 195 224 2,000 -200 Descending FlightAware ADS-B
Fri 09:56:32 PM 33.7510 130.3380 149° Southeast 197 227 2,000  Level FlightAware ADS-B
Fri 09:56:57 PM 33.7320 130.3520 148° Southeast 197 227 2,000  Level FlightAware ADS-B
Fri 09:57:27 PM 33.7070 130.3680 152° Southeast 172 198 2,000  Level FlightAware ADS-B
Fri 09:57:47 PM 33.6930 130.3770 152° Southeast 158 182 2,000 -120 Level FlightAware ADS-B
Fri 09:58:17 PM 33.6770 130.3890 148° Southeast 153 176 1,900 -554 Descending FlightAware ADS-B
Fri 09:58:52 PM 33.6550 130.4030 152° Southeast 139 160 1,400 -800 Descending FlightAware ADS-B
Fri 09:59:17 PM 33.6410 130.4130 149° Southeast 133 153 1,100 -764 Descending FlightAware ADS-B
Fri 09:59:47 PM 33.6260 130.4230 151° Southeast 132 152 700 -400 Descending FlightAware ADS-B
Fri 10:00:32 PM 33.6080 130.4360 149° Southeast 130 150 600 -133 Descending FlightAware ADS-B

Login

Don't have an account? Register now (free) for customized features, flight alerts, and more!